createdAt,value
2022-10-16T00:01:29.055Z,100533.72
2022-10-16T00:03:56.916Z,100321.00
2022-10-16T00:06:24.033Z,100459.50
2022-10-16T00:08:51.268Z,100494.00
2022-10-16T00:11:21.825Z,100499.00
2022-10-16T00:13:50.309Z,100579.25
2022-10-16T00:16:17.652Z,100575.47
2022-10-16T00:18:44.370Z,100395.69
2022-10-16T00:21:15.214Z,100444.56
2022-10-16T00:23:42.077Z,100540.16
2022-10-16T00:26:12.961Z,100588.72
2022-10-16T00:28:40.361Z,100494.63
2022-10-16T00:31:13.940Z,100550.50
2022-10-16T00:33:41.310Z,100413.81
2022-10-16T00:36:10.997Z,100583.34
2022-10-16T00:38:38.806Z,100578.22
2022-10-16T00:41:06.919Z,100214.50
2022-10-16T00:43:55.309Z,100205.31
2022-10-16T00:46:26.019Z,100210.91
2022-10-16T00:48:56.411Z,100564.72
2022-10-16T00:51:29.207Z,100488.50
2022-10-16T00:53:56.289Z,100578.03
2022-10-16T00:56:23.030Z,100201.84
2022-10-16T00:58:49.683Z,100438.03
2022-10-16T01:01:16.482Z,100556.53
2022-10-16T01:03:43.093Z,100578.06
2022-10-16T01:06:41.726Z,100582.53
2022-10-16T01:09:25.084Z,100374.16
2022-10-16T01:12:06.571Z,100560.31
2022-10-16T01:14:55.573Z,100584.28
2022-10-16T01:17:33.694Z,100446.28
2022-10-16T01:20:07.586Z,100465.16
2022-10-16T01:22:56.655Z,100593.47
2022-10-16T01:26:04.669Z,100548.88
2022-10-16T01:28:37.767Z,100471.13
2022-10-16T01:31:05.092Z,100563.31
2022-10-16T01:33:41.008Z,100562.88
2022-10-16T01:36:15.844Z,100489.69
2022-10-16T01:38:45.729Z,100400.00
2022-10-16T01:41:22.447Z,100593.69
2022-10-16T01:44:07.193Z,100468.25
2022-10-16T01:46:36.843Z,100597.13
2022-10-16T01:49:05.654Z,100491.94
2022-10-16T01:51:34.102Z,100594.63
2022-10-16T01:54:02.920Z,100506.94
2022-10-16T01:56:30.751Z,100566.75
2022-10-16T01:59:02.334Z,100504.88
2022-10-16T02:01:32.510Z,100558.03
2022-10-16T02:04:02.968Z,100578.91
2022-10-16T02:06:30.487Z,100610.88
2022-10-16T02:08:57.099Z,100463.78
2022-10-16T02:11:23.723Z,100608.69
2022-10-16T02:13:56.404Z,100447.53
2022-10-16T02:16:34.624Z,100483.59
2022-10-16T02:19:01.766Z,100619.00
2022-10-16T02:21:41.672Z,100543.72
2022-10-16T02:24:17.339Z,100606.63
2022-10-16T02:26:53.959Z,100523.09
2022-10-16T02:29:25.541Z,100549.44
2022-10-16T02:31:59.183Z,100576.94
2022-10-16T02:34:27.395Z,100599.63
2022-10-16T02:36:55.792Z,100561.13
2022-10-16T02:39:23.158Z,100575.56
2022-10-16T02:41:49.820Z,100546.72
2022-10-16T02:44:16.433Z,100509.00
2022-10-16T02:46:42.999Z,100631.47
2022-10-16T02:49:09.570Z,100584.94
2022-10-16T02:51:36.127Z,100562.16
2022-10-16T02:54:03.371Z,100589.41
2022-10-16T02:56:30.943Z,100630.31
2022-10-16T02:59:00.876Z,100578.66
2022-10-16T03:01:27.573Z,100601.56
2022-10-16T03:03:54.362Z,100454.28
2022-10-16T03:06:21.000Z,100436.31
2022-10-16T03:08:47.697Z,100407.59
2022-10-16T03:11:14.273Z,100528.38
2022-10-16T03:13:40.895Z,100611.09
2022-10-16T03:16:07.556Z,100526.19
2022-10-16T03:18:34.259Z,100589.22
2022-10-16T03:21:00.980Z,100547.84
2022-10-16T03:23:27.680Z,100581.53
2022-10-16T03:25:54.954Z,100540.72
2022-10-16T03:28:21.765Z,100403.19
2022-10-16T03:30:48.368Z,100622.00
2022-10-16T03:33:15.229Z,100621.44
2022-10-16T03:35:41.848Z,100558.59
2022-10-16T03:38:08.556Z,100607.00
2022-10-16T03:40:35.202Z,100603.66
2022-10-16T03:43:02.325Z,100305.41
2022-10-16T03:45:29.182Z,100475.13
2022-10-16T03:47:55.783Z,100493.22
2022-10-16T03:50:22.321Z,100618.78
2022-10-16T03:52:49.017Z,100593.25
2022-10-16T03:55:15.810Z,100615.91
2022-10-16T03:57:42.484Z,100637.81
2022-10-16T04:00:09.726Z,100652.72
2022-10-16T04:02:39.634Z,100658.91
2022-10-16T04:05:06.927Z,100591.41
2022-10-16T04:07:33.471Z,100603.09
2022-10-16T04:10:00.121Z,100545.44
2022-10-16T04:12:27.839Z,100642.16
2022-10-16T04:14:54.465Z,100641.34
2022-10-16T04:17:21.108Z,100523.09
2022-10-16T04:19:47.670Z,100385.13
2022-10-16T04:22:14.329Z,100653.97
2022-10-16T04:24:41.087Z,100665.09
2022-10-16T04:27:07.596Z,100492.88
2022-10-16T04:29:34.182Z,100410.28
2022-10-16T04:32:00.782Z,100567.88
2022-10-16T04:34:27.341Z,100662.13
2022-10-16T04:36:53.981Z,100505.13
2022-10-16T04:39:20.589Z,100631.19
2022-10-16T04:41:47.187Z,100570.88
2022-10-16T04:44:13.807Z,100493.88
2022-10-16T04:46:40.331Z,100613.06
2022-10-16T04:49:06.856Z,100394.59
2022-10-16T04:51:34.357Z,100596.28
2022-10-16T04:54:00.966Z,100497.38
2022-10-16T04:56:27.628Z,100577.97
2022-10-16T04:58:54.295Z,100512.19
2022-10-16T05:01:20.987Z,100379.38
2022-10-16T05:03:47.624Z,100691.59
2022-10-16T05:06:14.165Z,100699.28
2022-10-16T05:08:40.743Z,100556.41
2022-10-16T05:11:07.413Z,100559.28
2022-10-16T05:13:33.975Z,100336.78
2022-10-16T05:16:00.612Z,100575.13
2022-10-16T05:18:27.190Z,100701.69
2022-10-16T05:20:53.860Z,100474.72
2022-10-16T05:23:20.406Z,100652.38
2022-10-16T05:25:59.029Z,100707.06
2022-10-16T05:28:26.694Z,100691.34
2022-10-16T05:30:53.651Z,100541.53
2022-10-16T05:33:25.645Z,100711.22
2022-10-16T05:35:52.767Z,100649.28
2022-10-16T05:38:19.830Z,100495.44
2022-10-16T05:40:53.643Z,100705.00
2022-10-16T05:43:21.023Z,100559.47
2022-10-16T05:46:07.197Z,100568.78
2022-10-16T05:48:34.073Z,100647.41
2022-10-16T05:51:03.189Z,100660.81
2022-10-16T05:53:31.498Z,100724.13
2022-10-16T05:55:58.691Z,100734.19
2022-10-16T05:58:26.914Z,100621.84
2022-10-16T06:00:57.456Z,100749.28
2022-10-16T06:03:24.532Z,100449.00
2022-10-16T06:05:51.533Z,100762.66
2022-10-16T06:08:19.699Z,100600.72
2022-10-16T06:10:48.003Z,100455.78
2022-10-16T06:13:15.303Z,100763.91
2022-10-16T06:15:43.405Z,100658.28
2022-10-16T06:18:10.916Z,100603.56
2022-10-16T06:20:38.800Z,100684.78
2022-10-16T06:23:05.481Z,100717.88
2022-10-16T06:25:32.699Z,100542.56
2022-10-16T06:27:59.420Z,100440.81
2022-10-16T06:30:26.189Z,100778.59
2022-10-16T06:32:52.806Z,100711.38
2022-10-16T06:35:19.447Z,100595.19
2022-10-16T06:37:46.056Z,100794.16
2022-10-16T06:40:12.745Z,100793.56
2022-10-16T06:42:39.342Z,100495.75
2022-10-16T06:45:06.392Z,100799.31
2022-10-16T06:47:35.944Z,100561.47
2022-10-16T06:50:04.770Z,100697.00
2022-10-16T06:52:31.359Z,100346.22
2022-10-16T06:54:57.900Z,100676.34
2022-10-16T06:57:24.540Z,100654.44
2022-10-16T06:59:55.232Z,100504.09
2022-10-16T07:02:22.083Z,100690.91
2022-10-16T07:04:48.668Z,100834.22
2022-10-16T07:07:15.305Z,100763.47
2022-10-16T07:09:41.899Z,100715.94
2022-10-16T07:12:08.486Z,100751.44
2022-10-16T07:14:35.044Z,100802.50
2022-10-16T07:17:01.707Z,100680.38
2022-10-16T07:19:31.903Z,100853.44
2022-10-16T07:22:00.162Z,100659.03
2022-10-16T07:24:26.816Z,100683.28
2022-10-16T07:26:56.425Z,100882.63
2022-10-16T07:29:23.405Z,100547.47
2022-10-16T07:31:50.662Z,100733.16
2022-10-16T07:34:18.904Z,100891.59
2022-10-16T07:36:48.997Z,100890.06
2022-10-16T07:39:15.593Z,100709.75
2022-10-16T07:41:42.129Z,100896.63
2022-10-16T07:44:09.038Z,100708.47
2022-10-16T07:46:36.946Z,100824.44
2022-10-16T07:49:04.434Z,100662.91
2022-10-16T07:51:31.147Z,100750.38
2022-10-16T07:53:57.729Z,100772.31
2022-10-16T07:56:24.712Z,100868.13
2022-10-16T07:58:52.187Z,100819.72
2022-10-16T08:01:19.334Z,100927.09
2022-10-16T08:03:51.044Z,100924.41
2022-10-16T08:06:20.843Z,100923.59
2022-10-16T08:08:50.682Z,100895.09
2022-10-16T08:11:17.466Z,100934.03
2022-10-16T08:13:44.236Z,100477.03
2022-10-16T08:16:10.903Z,100609.94
2022-10-16T08:18:39.191Z,100941.94
2022-10-16T08:21:07.192Z,100944.06
2022-10-16T08:23:34.845Z,100936.56
2022-10-16T08:26:09.370Z,100537.59
2022-10-16T08:28:36.591Z,100754.84
2022-10-16T08:31:08.343Z,100940.56
2022-10-16T08:33:36.223Z,100830.47
2022-10-16T08:36:04.272Z,100927.31
2022-10-16T08:38:31.080Z,100916.81
2022-10-16T08:41:28.969Z,100964.44
2022-10-16T08:44:29.162Z,100916.88
2022-10-16T08:47:18.527Z,100977.72
2022-10-16T08:50:09.282Z,100904.94
2022-10-16T08:52:42.496Z,100881.59
2022-10-16T08:55:47.033Z,100976.50
2022-10-16T08:58:27.304Z,100849.94
2022-10-16T09:01:01.124Z,100938.94
2022-10-16T09:03:59.116Z,100969.09
2022-10-16T09:06:47.643Z,100907.19
2022-10-16T09:09:43.222Z,100919.63
2022-10-16T09:12:19.172Z,100900.66
2022-10-16T09:15:21.751Z,100916.66
2022-10-16T09:18:11.051Z,100988.53
2022-10-16T09:21:02.553Z,100967.63
2022-10-16T09:23:31.409Z,100983.63
2022-10-16T09:25:59.615Z,100990.31
2022-10-16T09:28:27.032Z,100909.59
2022-10-16T09:30:54.385Z,100891.59
2022-10-16T09:33:26.930Z,100619.16
2022-10-16T09:35:56.930Z,100837.47
2022-10-16T09:38:37.170Z,100990.50
2022-10-16T09:41:22.246Z,100989.31
2022-10-16T09:44:03.255Z,100990.13
2022-10-16T09:46:35.848Z,100995.75
2022-10-16T09:49:06.534Z,101003.28
2022-10-16T09:51:36.558Z,100743.56
2022-10-16T09:54:15.520Z,100812.50
2022-10-16T09:56:42.715Z,100950.81
2022-10-16T09:59:28.175Z,100887.06
2022-10-16T10:01:56.111Z,100893.50
2022-10-16T10:04:26.933Z,100786.94
2022-10-16T10:06:56.953Z,100704.06
2022-10-16T10:09:39.327Z,100936.16
2022-10-16T10:12:17.240Z,101000.94
2022-10-16T10:14:47.646Z,100937.19
2022-10-16T10:17:20.885Z,100988.66
2022-10-16T10:19:59.188Z,100911.06
2022-10-16T10:22:45.284Z,100918.56
2022-10-16T10:25:11.805Z,100986.81
2022-10-16T10:27:47.506Z,100976.13
2022-10-16T10:30:30.602Z,100986.84
2022-10-16T10:33:07.461Z,100988.41
2022-10-16T10:35:51.033Z,100990.81
2022-10-16T10:38:23.980Z,101004.31
2022-10-16T10:40:56.566Z,100925.97
2022-10-16T10:43:41.309Z,100997.81
2022-10-16T10:46:15.145Z,101005.25
2022-10-16T10:49:00.103Z,101005.50
2022-10-16T10:51:32.857Z,100993.97
2022-10-16T10:54:17.793Z,100998.56
2022-10-16T10:56:56.617Z,101002.78
2022-10-16T10:59:46.325Z,100732.88
2022-10-16T11:02:25.673Z,100991.38
2022-10-16T11:05:10.820Z,101002.19
2022-10-16T11:07:53.015Z,100822.69
2022-10-16T11:10:25.336Z,100872.69
2022-10-16T11:13:01.448Z,101002.31
2022-10-16T11:15:37.283Z,100864.38
2022-10-16T11:18:12.747Z,100909.09
2022-10-16T11:20:46.792Z,101003.81
2022-10-16T11:23:24.262Z,100942.84
2022-10-16T11:25:52.632Z,100913.00
2022-10-16T11:28:32.807Z,100718.06
2022-10-16T11:31:30.717Z,101003.41
2022-10-16T11:34:08.093Z,100822.13
2022-10-16T11:37:02.196Z,101007.03
2022-10-16T11:39:30.810Z,100850.41
2022-10-16T11:42:23.663Z,101016.75
2022-10-16T11:45:12.444Z,100744.00
2022-10-16T11:48:05.517Z,100876.13
2022-10-16T11:50:51.184Z,100826.84
2022-10-16T11:53:36.992Z,101022.75
2022-10-16T11:56:05.552Z,100969.47
2022-10-16T11:58:50.385Z,101021.56
2022-10-16T12:04:20.758Z,101025.09
2022-10-16T12:07:01.125Z,100961.22
2022-10-16T12:09:31.492Z,100990.91
2022-10-16T12:11:58.815Z,100719.72
2022-10-16T12:14:28.396Z,101022.28
2022-10-16T12:17:06.444Z,101022.94
2022-10-16T12:19:33.623Z,100989.06
2022-10-16T12:22:02.703Z,101026.19
2022-10-16T12:24:36.626Z,101027.44
2022-10-16T12:27:05.904Z,100997.09
2022-10-16T12:29:44.938Z,100892.09
2022-10-16T12:32:47.404Z,101007.41
2022-10-16T12:35:24.361Z,100850.56
2022-10-16T12:37:52.562Z,100993.59
2022-10-16T12:40:28.356Z,100986.06
2022-10-16T12:42:55.088Z,100853.75
2022-10-16T12:45:26.570Z,100987.81
2022-10-16T12:47:55.324Z,100884.94
2022-10-16T12:50:24.923Z,100994.03
2022-10-16T12:52:51.563Z,100904.72
2022-10-16T12:55:20.560Z,100852.25
2022-10-16T12:58:34.953Z,101026.69
2022-10-16T13:01:29.311Z,101012.88
2022-10-16T13:04:17.693Z,100999.88
2022-10-16T13:07:18.075Z,100958.13
2022-10-16T13:10:13.327Z,100936.00
2022-10-16T13:12:58.303Z,100991.59
2022-10-16T13:15:43.304Z,100999.81
2022-10-16T13:18:12.979Z,101007.28
2022-10-16T13:21:05.804Z,101008.00
2022-10-16T13:23:58.708Z,101012.16
2022-10-16T13:26:49.726Z,100975.19
2022-10-16T13:29:17.004Z,100892.03
2022-10-16T13:31:45.189Z,100959.28
2022-10-16T13:34:20.473Z,100830.91
2022-10-16T13:36:52.556Z,100983.13
2022-10-16T13:39:31.503Z,101010.50
2022-10-16T13:42:04.847Z,101008.00
2022-10-16T13:44:43.470Z,100802.06
2022-10-16T13:47:22.405Z,100922.13
2022-10-16T13:50:05.281Z,100936.50
2022-10-16T13:52:32.345Z,101007.81
2022-10-16T13:55:01.773Z,100820.34
2022-10-16T13:57:29.450Z,100716.22
2022-10-16T13:59:56.063Z,100862.22
2022-10-16T14:02:40.138Z,100978.13
2022-10-16T14:05:11.402Z,100891.84
2022-10-16T14:07:39.146Z,100895.63
2022-10-16T14:10:19.066Z,100954.81
2022-10-16T14:12:46.011Z,101015.31
2022-10-16T14:15:20.187Z,100968.81
2022-10-16T14:17:50.847Z,101019.59
2022-10-16T14:20:17.848Z,100655.97
2022-10-16T14:22:44.559Z,100849.34
2022-10-16T14:25:20.378Z,101005.13
2022-10-16T14:27:59.322Z,101008.13
2022-10-16T14:30:26.275Z,100889.97
2022-10-16T14:32:57.517Z,100750.75
2022-10-16T14:35:33.039Z,100993.50
2022-10-16T14:38:01.639Z,101003.72
2022-10-16T14:40:32.164Z,100887.63
2022-10-16T14:43:00.468Z,101002.13
2022-10-16T14:45:34.859Z,100999.22
2022-10-16T14:48:06.300Z,100703.91
2022-10-16T14:50:32.917Z,100953.19
2022-10-16T14:53:00.043Z,100947.59
2022-10-16T14:55:27.015Z,100614.78
2022-10-16T14:57:58.137Z,100962.16
2022-10-16T15:00:27.420Z,100564.22
2022-10-16T15:02:54.024Z,101014.19
2022-10-16T15:05:23.279Z,100787.50
2022-10-16T15:07:50.413Z,101016.34
2022-10-16T15:10:18.359Z,100563.28
2022-10-16T15:12:45.251Z,101017.50
2022-10-16T15:15:35.460Z,100879.94
2022-10-16T15:18:03.473Z,100964.16
2022-10-16T15:20:37.885Z,100911.09
2022-10-16T15:23:21.348Z,100963.06
2022-10-16T15:26:09.041Z,101025.75
2022-10-16T15:28:37.040Z,100843.66
2022-10-16T15:31:05.529Z,100793.28
2022-10-16T15:33:38.694Z,100835.94
2022-10-16T15:36:07.414Z,101021.22
2022-10-16T15:38:34.030Z,100969.47
2022-10-16T15:41:00.792Z,100990.53
2022-10-16T15:43:27.454Z,100616.94
2022-10-16T15:46:15.396Z,101012.66
2022-10-16T15:48:42.360Z,100922.78
2022-10-16T15:51:09.002Z,100738.25
2022-10-16T15:53:36.729Z,100911.50
2022-10-16T15:56:05.106Z,100669.47
2022-10-16T15:58:32.037Z,101006.19
2022-10-16T16:01:01.939Z,100827.94
2022-10-16T16:03:29.432Z,101002.97
2022-10-16T16:05:56.044Z,100926.34
2022-10-16T16:08:22.964Z,100927.41
2022-10-16T16:11:11.254Z,100895.91
2022-10-16T16:13:39.126Z,100911.09
2022-10-16T16:16:13.516Z,100724.06
2022-10-16T16:18:40.632Z,100649.78
2022-10-16T16:21:07.944Z,100832.75
2022-10-16T16:23:34.701Z,101006.22
2022-10-16T16:26:15.579Z,100992.88
2022-10-16T16:28:44.212Z,101005.59
2022-10-16T16:31:11.229Z,100767.97
2022-10-16T16:33:37.881Z,100987.38
2022-10-16T16:36:10.445Z,100931.22
2022-10-16T16:38:39.876Z,100914.09
2022-10-16T16:41:18.716Z,101020.06
2022-10-16T16:43:45.865Z,100604.09
2022-10-16T16:46:12.827Z,100896.31
2022-10-16T16:48:39.666Z,100717.56
2022-10-16T16:51:08.382Z,100893.38
2022-10-16T16:53:36.373Z,101031.41
2022-10-16T16:56:05.199Z,101035.66
2022-10-16T16:58:32.701Z,100664.38
2022-10-16T17:01:18.786Z,101036.91
2022-10-16T17:03:47.445Z,101045.16
2022-10-16T17:06:15.378Z,101039.31
2022-10-16T17:08:43.375Z,100991.97
2022-10-16T17:11:16.207Z,100932.66
2022-10-16T17:13:42.935Z,100773.13
2022-10-16T17:16:09.884Z,101043.69
2022-10-16T17:18:36.907Z,100928.22
2022-10-16T17:21:06.546Z,100920.69
2022-10-16T17:23:34.224Z,101032.50
2022-10-16T17:26:16.287Z,101051.56
2022-10-16T17:28:44.416Z,100835.31
2022-10-16T17:31:14.299Z,100943.22
2022-10-16T17:33:41.453Z,100946.44
2022-10-16T17:36:08.329Z,100836.69
2022-10-16T17:38:36.937Z,100983.78
2022-10-16T17:41:12.758Z,101056.47
2022-10-16T17:43:41.493Z,100795.53
2022-10-16T17:46:09.595Z,101056.41
2022-10-16T17:48:41.056Z,100867.03
2022-10-16T17:51:09.100Z,100938.50
2022-10-16T17:53:39.535Z,100909.63
2022-10-16T17:56:08.243Z,100836.09
2022-10-16T17:58:35.390Z,101085.59
2022-10-16T18:01:03.054Z,101067.56
2022-10-16T18:03:29.725Z,100763.63
2022-10-16T18:05:56.586Z,100810.78
2022-10-16T18:08:26.450Z,101079.59
2022-10-16T18:10:55.817Z,100710.25
2022-10-16T18:13:23.375Z,100830.34
2022-10-16T18:16:00.901Z,101014.69
2022-10-16T18:18:29.649Z,100593.34
2022-10-16T18:21:01.149Z,100873.34
2022-10-16T18:23:29.046Z,101022.16
2022-10-16T18:25:56.194Z,100898.75
2022-10-16T18:28:23.438Z,100774.00
2022-10-16T18:31:03.085Z,100906.47
2022-10-16T18:33:32.620Z,100852.75
2022-10-16T18:36:04.141Z,100783.84
2022-10-16T18:38:30.910Z,100749.44
2022-10-16T18:40:58.289Z,100733.97
2022-10-16T18:43:24.893Z,101032.47
2022-10-16T18:46:00.279Z,101061.94
2022-10-16T18:48:27.763Z,100790.44
2022-10-16T18:50:54.585Z,100883.31
2022-10-16T18:53:21.393Z,100814.88
2022-10-16T18:55:53.179Z,101032.66
2022-10-16T18:58:20.344Z,100922.13
2022-10-16T19:00:47.135Z,101093.44
2022-10-16T19:03:13.738Z,100991.59
2022-10-16T19:05:40.354Z,101012.06
2022-10-16T19:08:07.126Z,101040.72
2022-10-16T19:10:37.277Z,100871.44
2022-10-16T19:13:07.519Z,100804.66
2022-10-16T19:15:49.720Z,100975.31
2022-10-16T19:18:27.002Z,100804.13
2022-10-16T19:20:54.666Z,100985.25
2022-10-16T19:23:21.900Z,101123.34
2022-10-16T19:25:48.514Z,100664.38
2022-10-16T19:28:15.168Z,100944.94
2022-10-16T19:30:42.772Z,101068.09
2022-10-16T19:33:09.441Z,100891.31
2022-10-16T19:35:36.125Z,101074.44
2022-10-16T19:38:02.700Z,100620.28
2022-10-16T19:40:29.404Z,100982.03
2022-10-16T19:42:56.068Z,101039.78
2022-10-16T19:45:22.873Z,100863.13
2022-10-16T19:47:49.547Z,101149.25
2022-10-16T19:50:16.352Z,100876.69
2022-10-16T19:52:43.220Z,100902.84
2022-10-16T19:55:10.061Z,100923.34
2022-10-16T19:57:37.606Z,101045.81
2022-10-16T20:00:09.306Z,100887.84
2022-10-16T20:02:36.290Z,101135.19
2022-10-16T20:05:03.062Z,100671.31
2022-10-16T20:07:32.587Z,101149.16
2022-10-16T20:10:01.536Z,100966.75
2022-10-16T20:12:28.134Z,100974.22
2022-10-16T20:14:54.713Z,100933.09
2022-10-16T20:17:21.290Z,100676.41
2022-10-16T20:19:47.985Z,101043.63
2022-10-16T20:22:14.577Z,100824.19
2022-10-16T20:24:41.353Z,100644.88
2022-10-16T20:27:09.293Z,101141.38
2022-10-16T20:29:36.011Z,101158.19
2022-10-16T20:32:02.995Z,101158.66
2022-10-16T20:34:29.768Z,100921.94
2022-10-16T20:36:56.479Z,100941.34
2022-10-16T20:39:23.189Z,100842.69
2022-10-16T20:41:49.834Z,101148.69
2022-10-16T20:44:28.526Z,101152.63
2022-10-16T20:46:55.957Z,100800.75
2022-10-16T20:49:39.387Z,100922.16
2022-10-16T20:52:06.771Z,101138.38
2022-10-16T20:54:33.325Z,101006.00
2022-10-16T20:56:59.945Z,100757.44
2022-10-16T22:25:19.475Z,101057.06
2022-10-16T22:27:47.034Z,101106.41
2022-10-16T22:30:13.648Z,101069.84
2022-10-16T22:32:42.480Z,100928.09
2022-10-16T22:35:09.325Z,101139.16
2022-10-16T22:37:36.113Z,101014.78
2022-10-16T22:40:02.779Z,100933.78
2022-10-16T22:42:29.627Z,100957.34
2022-10-16T22:44:56.261Z,101061.44
2022-10-16T22:47:22.963Z,100966.28
2022-10-16T22:49:49.632Z,100907.69
2022-10-16T22:52:17.072Z,100894.59
2022-10-16T22:54:44.373Z,100916.09
2022-10-16T22:57:11.109Z,101111.78
2022-10-16T22:59:37.825Z,100771.84
2022-10-16T23:02:29.218Z,100813.28
2022-10-16T23:04:56.880Z,100869.78
2022-10-16T23:07:23.514Z,100889.75
2022-10-16T23:09:50.505Z,100902.72
2022-10-16T23:12:19.187Z,101144.44
2022-10-16T23:14:45.908Z,100866.63
2022-10-16T23:17:12.511Z,100856.53
2022-10-16T23:19:39.285Z,100647.44
2022-10-16T23:22:05.915Z,100929.13
2022-10-16T23:24:33.935Z,100923.13
2022-10-16T23:27:00.734Z,100957.03
2022-10-16T23:29:27.870Z,101037.28
2022-10-16T23:31:56.537Z,101160.34
2022-10-16T23:34:26.495Z,101059.84
2022-10-16T23:36:53.101Z,100735.56
2022-10-16T23:39:19.704Z,101166.56
2022-10-16T23:41:46.328Z,101088.81
2022-10-16T23:44:12.966Z,101052.34
2022-10-16T23:46:39.583Z,100979.63
2022-10-16T23:49:07.574Z,100723.69
2022-10-16T23:51:34.492Z,100957.63
2022-10-16T23:54:01.216Z,101155.94
2022-10-16T23:56:27.931Z,101162.03
2022-10-16T23:58:54.614Z,100998.34
